Skip Navigation Links
NOAA logo - Click to go to the NOAA homepage
NOAA's National Weather Service
Alaska Aviation Weather Unit
  NWS logo - Click to go to the NWS homepage
Left Navbar Graphic     03 AKDT = 11 GMT

   
NOAA is celebrating 200 years of science, service, and stewardship. Visit the NOAA 200th celebration Web site to learn more.
USA.gov is the U.S. Government's official Web portal to all Federal, state and local government Web resources and services.
Facebook
NWS on Facebook

AAWU Home :: Display TAF Add Bookmark
TAF PAFA 290520Z 2906/3012 22003KT P6SM SCT070 BKN140 BKN200
     FM290900 VRB02KT P6SM VCSH SCT025 BKN035 OVC050
     FM291600 VRB04KT P6SM VCSH SCT035 BKN080 OVC200
     FM301000 VRB03KT 5SM -SN BKN035 OVC080=

METAR PAFA 290553Z 17003KT 10SM SCT065 BKN140 BKN200 M09/M13 A2954= METAR PAFA 290653Z 00000KT 10SM FEW070 SCT140 BKN180 M11/M14 A2955= METAR PAFA 290753Z 00000KT 10SM FEW070 BKN140 BKN180 M12/M14 A2956= METAR PAFA 290853Z 00000KT 10SM FEW070 BKN140 BKN180 M12/M15 A2958= METAR PAFA 290953Z 00000KT 10SM FEW070 SCT120 BKN180 M13/M16 A2959= METAR PAFA 291053Z 00000KT 10SM FEW070 SCT120 BKN200 M16/M18 A2959 RMK AO2 SLP034 T11611178=
 Alaska TAF Map

NOAA's National Weather Service
Alaska Aviation Weather Unit
6930 Sand Lake Road
Anchorage, AK 99502-1845
Disclaimer
Credits
Glossary
Privacy Policy
About Us
Career Opportunities
Contact AAWU Internet Services Site last modified: April, 17th 2012